sensor_id;sensor_type;location;lat;lon;timestamp;temperature;humidity
26691;DHT22;14307;51.718;8.938;2023-12-29T00:01:39;9.20;99.90
26691;DHT22;14307;51.718;8.938;2023-12-29T00:04:06;9.20;99.90
26691;DHT22;14307;51.718;8.938;2023-12-29T00:06:33;9.30;99.90
26691;DHT22;14307;51.718;8.938;2023-12-29T00:09:06;9.30;99.90
26691;DHT22;14307;51.718;8.938;2023-12-29T00:11:33;9.30;99.90
26691;DHT22;14307;51.718;8.938;2023-12-29T00:13:59;9.20;99.90
26691;DHT22;14307;51.718;8.938;2023-12-29T00:16:29;9.30;99.90
26691;DHT22;14307;51.718;8.938;2023-12-29T00:18:56;9.30;99.90
26691;DHT22;14307;51.718;8.938;2023-12-29T00:21:23;9.30;99.90
26691;DHT22;14307;51.718;8.938;2023-12-29T00:23:50;9.40;99.90
26691;DHT22;14307;51.718;8.938;2023-12-29T00:26:17;9.30;99.90
26691;DHT22;14307;51.718;8.938;2023-12-29T00:28:53;9.30;99.90
26691;DHT22;14307;51.718;8.938;2023-12-29T00:31:19;9.30;99.90
26691;DHT22;14307;51.718;8.938;2023-12-29T00:33:46;9.30;99.90
26691;DHT22;14307;51.718;8.938;2023-12-29T00:36:18;9.30;99.90
26691;DHT22;14307;51.718;8.938;2023-12-29T00:38:45;9.30;99.90
26691;DHT22;14307;51.718;8.938;2023-12-29T00:41:12;9.30;99.90
26691;DHT22;14307;51.718;8.938;2023-12-29T00:43:39;9.40;99.90
26691;DHT22;14307;51.718;8.938;2023-12-29T00:46:06;9.40;99.90
26691;DHT22;14307;51.718;8.938;2023-12-29T00:48:34;9.40;99.90
26691;DHT22;14307;51.718;8.938;2023-12-29T00:51:01;9.40;99.90
26691;DHT22;14307;51.718;8.938;2023-12-29T00:53:30;9.50;99.90
26691;DHT22;14307;51.718;8.938;2023-12-29T00:55:59;9.50;99.90
26691;DHT22;14307;51.718;8.938;2023-12-29T00:58:26;9.50;99.90
26691;DHT22;14307;51.718;8.938;2023-12-29T01:00:53;9.50;99.90
26691;DHT22;14307;51.718;8.938;2023-12-29T01:03:20;9.50;99.90
26691;DHT22;14307;51.718;8.938;2023-12-29T01:05:50;9.50;99.90
26691;DHT22;14307;51.718;8.938;2023-12-29T01:08:17;9.50;99.90
26691;DHT22;14307;51.718;8.938;2023-12-29T01:10:44;9.50;99.90
26691;DHT22;14307;51.718;8.938;2023-12-29T01:13:11;9.50;99.90
26691;DHT22;14307;51.718;8.938;2023-12-29T01:15:38;9.50;99.90
26691;DHT22;14307;51.718;8.938;2023-12-29T01:18:07;9.50;99.90
26691;DHT22;14307;51.718;8.938;2023-12-29T01:20:34;9.50;99.90
26691;DHT22;14307;51.718;8.938;2023-12-29T01:23:00;9.50;99.90
26691;DHT22;14307;51.718;8.938;2023-12-29T01:25:27;9.50;99.90
26691;DHT22;14307;51.718;8.938;2023-12-29T01:27:54;9.50;99.90
26691;DHT22;14307;51.718;8.938;2023-12-29T01:30:21;9.50;99.90
26691;DHT22;14307;51.718;8.938;2023-12-29T01:32:48;9.60;99.90
26691;DHT22;14307;51.718;8.938;2023-12-29T01:35:15;9.60;99.90
26691;DHT22;14307;51.718;8.938;2023-12-29T01:37:45;9.60;99.90
26691;DHT22;14307;51.718;8.938;2023-12-29T01:40:12;9.60;99.90
26691;DHT22;14307;51.718;8.938;2023-12-29T01:42:40;9.70;99.90
26691;DHT22;14307;51.718;8.938;2023-12-29T01:45:19;9.70;99.90
26691;DHT22;14307;51.718;8.938;2023-12-29T01:47:48;9.70;99.90
26691;DHT22;14307;51.718;8.938;2023-12-29T01:50:17;9.60;99.90
26691;DHT22;14307;51.718;8.938;2023-12-29T01:52:48;9.60;99.90
26691;DHT22;14307;51.718;8.938;2023-12-29T01:55:18;9.60;99.90
26691;DHT22;14307;51.718;8.938;2023-12-29T01:57:46;9.60;99.90
26691;DHT22;14307;51.718;8.938;2023-12-29T02:00:13;9.60;99.90
26691;DHT22;14307;51.718;8.938;2023-12-29T02:02:46;9.60;99.90
26691;DHT22;14307;51.718;8.938;2023-12-29T02:05:15;9.70;99.90
26691;DHT22;14307;51.718;8.938;2023-12-29T02:07:43;9.70;99.90
26691;DHT22;14307;51.718;8.938;2023-12-29T02:10:11;9.70;99.90
26691;DHT22;14307;51.718;8.938;2023-12-29T02:12:42;9.70;99.90
26691;DHT22;14307;51.718;8.938;2023-12-29T02:15:09;9.70;99.90
26691;DHT22;14307;51.718;8.938;2023-12-29T02:17:43;9.70;99.90
26691;DHT22;14307;51.718;8.938;2023-12-29T02:20:11;9.80;99.90
26691;DHT22;14307;51.718;8.938;2023-12-29T02:22:39;9.80;99.90
26691;DHT22;14307;51.718;8.938;2023-12-29T02:25:06;9.80;99.90
26691;DHT22;14307;51.718;8.938;2023-12-29T02:27:49;9.80;99.90
26691;DHT22;14307;51.718;8.938;2023-12-29T02:30:38;9.70;99.90
26691;DHT22;14307;51.718;8.938;2023-12-29T02:33:10;9.70;99.90
26691;DHT22;14307;51.718;8.938;2023-12-29T02:35:42;9.70;99.90
26691;DHT22;14307;51.718;8.938;2023-12-29T02:38:10;9.60;99.90
26691;DHT22;14307;51.718;8.938;2023-12-29T02:40:38;9.60;99.90
26691;DHT22;14307;51.718;8.938;2023-12-29T02:43:05;9.60;99.90
26691;DHT22;14307;51.718;8.938;2023-12-29T02:45:32;9.60;99.90
26691;DHT22;14307;51.718;8.938;2023-12-29T02:47:59;9.60;99.90
26691;DHT22;14307;51.718;8.938;2023-12-29T02:50:27;9.60;99.90
26691;DHT22;14307;51.718;8.938;2023-12-29T02:52:55;9.70;99.90
26691;DHT22;14307;51.718;8.938;2023-12-29T02:55:21;9.70;99.90
26691;DHT22;14307;51.718;8.938;2023-12-29T02:57:48;9.70;99.90
26691;DHT22;14307;51.718;8.938;2023-12-29T03:00:15;9.70;99.90
26691;DHT22;14307;51.718;8.938;2023-12-29T03:02:42;9.70;99.90
26691;DHT22;14307;51.718;8.938;2023-12-29T03:05:10;9.60;99.90
26691;DHT22;14307;51.718;8.938;2023-12-29T03:07:37;9.60;99.90
26691;DHT22;14307;51.718;8.938;2023-12-29T03:10:04;9.50;99.90
26691;DHT22;14307;51.718;8.938;2023-12-29T03:12:31;9.30;99.90
26691;DHT22;14307;51.718;8.938;2023-12-29T03:14:58;9.20;99.90
26691;DHT22;14307;51.718;8.938;2023-12-29T03:17:25;9.10;99.90
26691;DHT22;14307;51.718;8.938;2023-12-29T03:19:52;9.00;99.90
26691;DHT22;14307;51.718;8.938;2023-12-29T03:22:20;9.00;99.90
26691;DHT22;14307;51.718;8.938;2023-12-29T03:24:48;9.00;99.90
26691;DHT22;14307;51.718;8.938;2023-12-29T03:27:15;8.90;99.90
26691;DHT22;14307;51.718;8.938;2023-12-29T03:29:42;8.90;99.90
26691;DHT22;14307;51.718;8.938;2023-12-29T03:32:09;8.90;99.90
26691;DHT22;14307;51.718;8.938;2023-12-29T03:34:36;8.80;99.90
26691;DHT22;14307;51.718;8.938;2023-12-29T03:37:03;8.70;99.90
26691;DHT22;14307;51.718;8.938;2023-12-29T03:39:30;8.60;99.90
26691;DHT22;14307;51.718;8.938;2023-12-29T03:41:56;8.60;99.90
26691;DHT22;14307;51.718;8.938;2023-12-29T03:44:23;8.60;99.90
26691;DHT22;14307;51.718;8.938;2023-12-29T03:46:50;8.50;99.90
26691;DHT22;14307;51.718;8.938;2023-12-29T03:49:18;8.40;99.90
26691;DHT22;14307;51.718;8.938;2023-12-29T03:51:46;8.40;99.90
26691;DHT22;14307;51.718;8.938;2023-12-29T03:54:14;8.40;99.90
26691;DHT22;14307;51.718;8.938;2023-12-29T03:56:41;8.30;99.90
26691;DHT22;14307;51.718;8.938;2023-12-29T03:59:08;8.40;99.90
26691;DHT22;14307;51.718;8.938;2023-12-29T04:01:35;8.40;99.90
26691;DHT22;14307;51.718;8.938;2023-12-29T04:04:02;8.30;99.90
26691;DHT22;14307;51.718;8.938;2023-12-29T04:06:29;8.30;99.90
26691;DHT22;14307;51.718;8.938;2023-12-29T04:08:56;8.20;99.90
26691;DHT22;14307;51.718;8.938;2023-12-29T04:11:23;8.20;99.90
26691;DHT22;14307;51.718;8.938;2023-12-29T04:13:50;8.20;99.90
26691;DHT22;14307;51.718;8.938;2023-12-29T04:16:16;8.20;99.90
26691;DHT22;14307;51.718;8.938;2023-12-29T04:18:44;8.20;99.90
26691;DHT22;14307;51.718;8.938;2023-12-29T04:21:15;8.20;99.90
26691;DHT22;14307;51.718;8.938;2023-12-29T04:23:41;8.30;99.90
26691;DHT22;14307;51.718;8.938;2023-12-29T04:26:08;8.30;99.90
26691;DHT22;14307;51.718;8.938;2023-12-29T04:28:36;8.30;99.90
26691;DHT22;14307;51.718;8.938;2023-12-29T04:31:03;8.30;99.90
26691;DHT22;14307;51.718;8.938;2023-12-29T04:33:30;8.20;99.90
26691;DHT22;14307;51.718;8.938;2023-12-29T04:35:57;8.20;99.90
26691;DHT22;14307;51.718;8.938;2023-12-29T04:38:24;8.20;99.90
26691;DHT22;14307;51.718;8.938;2023-12-29T04:40:51;8.20;99.90
26691;DHT22;14307;51.718;8.938;2023-12-29T04:43:18;8.20;99.90
26691;DHT22;14307;51.718;8.938;2023-12-29T04:45:45;8.20;99.90
26691;DHT22;14307;51.718;8.938;2023-12-29T04:48:12;8.20;99.90
26691;DHT22;14307;51.718;8.938;2023-12-29T04:50:39;8.20;99.90
26691;DHT22;14307;51.718;8.938;2023-12-29T04:53:05;8.20;99.90
26691;DHT22;14307;51.718;8.938;2023-12-29T04:55:32;8.20;99.90
26691;DHT22;14307;51.718;8.938;2023-12-29T04:57:59;8.30;99.90
26691;DHT22;14307;51.718;8.938;2023-12-29T05:00:26;8.30;99.90
26691;DHT22;14307;51.718;8.938;2023-12-29T05:02:53;8.30;99.90
26691;DHT22;14307;51.718;8.938;2023-12-29T05:05:19;8.30;99.90
26691;DHT22;14307;51.718;8.938;2023-12-29T05:07:46;8.40;99.90
26691;DHT22;14307;51.718;8.938;2023-12-29T05:10:13;8.40;99.90
26691;DHT22;14307;51.718;8.938;2023-12-29T05:12:40;8.30;99.90
26691;DHT22;14307;51.718;8.938;2023-12-29T05:15:07;8.30;99.90
26691;DHT22;14307;51.718;8.938;2023-12-29T05:17:33;8.30;99.90
26691;DHT22;14307;51.718;8.938;2023-12-29T05:20:00;8.40;99.90
26691;DHT22;14307;51.718;8.938;2023-12-29T05:22:27;8.40;99.90
26691;DHT22;14307;51.718;8.938;2023-12-29T05:24:54;8.40;99.90
26691;DHT22;14307;51.718;8.938;2023-12-29T05:27:24;8.40;99.90
26691;DHT22;14307;51.718;8.938;2023-12-29T05:29:51;8.50;99.90
26691;DHT22;14307;51.718;8.938;2023-12-29T05:32:17;8.50;99.90
26691;DHT22;14307;51.718;8.938;2023-12-29T05:34:44;8.50;99.90
26691;DHT22;14307;51.718;8.938;2023-12-29T05:37:11;8.60;99.90
26691;DHT22;14307;51.718;8.938;2023-12-29T05:39:41;8.60;99.90
26691;DHT22;14307;51.718;8.938;2023-12-29T05:42:08;8.60;99.90
26691;DHT22;14307;51.718;8.938;2023-12-29T05:44:38;8.60;99.90
26691;DHT22;14307;51.718;8.938;2023-12-29T05:47:05;8.60;99.90
26691;DHT22;14307;51.718;8.938;2023-12-29T05:49:32;8.70;99.90
26691;DHT22;14307;51.718;8.938;2023-12-29T05:52:08;8.70;99.90
26691;DHT22;14307;51.718;8.938;2023-12-29T05:54:35;8.80;99.90
26691;DHT22;14307;51.718;8.938;2023-12-29T05:57:02;8.80;99.90
26691;DHT22;14307;51.718;8.938;2023-12-29T05:59:29;8.80;99.90
26691;DHT22;14307;51.718;8.938;2023-12-29T06:01:56;8.90;99.90
26691;DHT22;14307;51.718;8.938;2023-12-29T06:04:23;9.00;99.90
26691;DHT22;14307;51.718;8.938;2023-12-29T06:06:50;9.00;99.90
26691;DHT22;14307;51.718;8.938;2023-12-29T06:09:18;9.10;99.90
26691;DHT22;14307;51.718;8.938;2023-12-29T06:11:45;9.10;99.90
26691;DHT22;14307;51.718;8.938;2023-12-29T06:14:12;9.10;99.90
26691;DHT22;14307;51.718;8.938;2023-12-29T06:16:38;9.10;99.90
26691;DHT22;14307;51.718;8.938;2023-12-29T06:19:05;9.20;99.90
26691;DHT22;14307;51.718;8.938;2023-12-29T06:21:32;9.20;99.90
26691;DHT22;14307;51.718;8.938;2023-12-29T06:23:59;9.20;99.90
26691;DHT22;14307;51.718;8.938;2023-12-29T06:26:26;9.20;99.90
26691;DHT22;14307;51.718;8.938;2023-12-29T06:28:53;9.20;99.90
26691;DHT22;14307;51.718;8.938;2023-12-29T06:31:20;9.20;99.90
26691;DHT22;14307;51.718;8.938;2023-12-29T06:33:47;9.10;99.90
26691;DHT22;14307;51.718;8.938;2023-12-29T06:36:14;9.20;99.90
26691;DHT22;14307;51.718;8.938;2023-12-29T06:38:41;9.20;99.90
26691;DHT22;14307;51.718;8.938;2023-12-29T06:41:08;9.20;99.90
26691;DHT22;14307;51.718;8.938;2023-12-29T06:43:35;9.20;99.90
26691;DHT22;14307;51.718;8.938;2023-12-29T06:46:02;9.10;99.90
26691;DHT22;14307;51.718;8.938;2023-12-29T06:48:29;9.10;99.90
26691;DHT22;14307;51.718;8.938;2023-12-29T06:50:56;9.10;99.90
26691;DHT22;14307;51.718;8.938;2023-12-29T06:53:22;9.10;99.90
26691;DHT22;14307;51.718;8.938;2023-12-29T06:55:50;9.00;99.90
26691;DHT22;14307;51.718;8.938;2023-12-29T06:58:16;9.00;99.90
26691;DHT22;14307;51.718;8.938;2023-12-29T07:00:43;9.10;99.90
26691;DHT22;14307;51.718;8.938;2023-12-29T07:03:14;9.10;99.90
26691;DHT22;14307;51.718;8.938;2023-12-29T07:05:41;9.20;99.90
26691;DHT22;14307;51.718;8.938;2023-12-29T07:08:13;9.30;99.90
26691;DHT22;14307;51.718;8.938;2023-12-29T07:10:40;9.30;99.90
26691;DHT22;14307;51.718;8.938;2023-12-29T07:13:06;9.30;99.90
26691;DHT22;14307;51.718;8.938;2023-12-29T07:15:33;9.30;99.90
26691;DHT22;14307;51.718;8.938;2023-12-29T07:18:00;9.30;99.90
26691;DHT22;14307;51.718;8.938;2023-12-29T07:20:28;9.40;99.90
26691;DHT22;14307;51.718;8.938;2023-12-29T07:22:55;9.40;99.90
26691;DHT22;14307;51.718;8.938;2023-12-29T07:25:21;9.50;99.90
26691;DHT22;14307;51.718;8.938;2023-12-29T07:27:48;9.50;99.90
26691;DHT22;14307;51.718;8.938;2023-12-29T07:30:15;9.50;99.90
26691;DHT22;14307;51.718;8.938;2023-12-29T07:32:42;9.50;99.90
26691;DHT22;14307;51.718;8.938;2023-12-29T07:35:09;9.50;99.90
26691;DHT22;14307;51.718;8.938;2023-12-29T07:37:37;9.50;99.90
26691;DHT22;14307;51.718;8.938;2023-12-29T07:40:04;9.50;99.90
26691;DHT22;14307;51.718;8.938;2023-12-29T07:42:31;9.50;99.90
26691;DHT22;14307;51.718;8.938;2023-12-29T07:44:58;9.50;99.90
26691;DHT22;14307;51.718;8.938;2023-12-29T07:47:26;9.50;99.90
26691;DHT22;14307;51.718;8.938;2023-12-29T07:49:53;9.50;99.90
26691;DHT22;14307;51.718;8.938;2023-12-29T07:52:19;9.60;99.90
26691;DHT22;14307;51.718;8.938;2023-12-29T07:54:46;9.50;99.90
26691;DHT22;14307;51.718;8.938;2023-12-29T07:57:13;9.60;99.90
26691;DHT22;14307;51.718;8.938;2023-12-29T07:59:40;9.60;99.90
26691;DHT22;14307;51.718;8.938;2023-12-29T08:02:07;9.60;99.90
26691;DHT22;14307;51.718;8.938;2023-12-29T08:04:34;9.60;99.90
26691;DHT22;14307;51.718;8.938;2023-12-29T08:07:00;9.60;99.90
26691;DHT22;14307;51.718;8.938;2023-12-29T08:09:27;9.60;99.90
26691;DHT22;14307;51.718;8.938;2023-12-29T08:11:54;9.60;99.90
26691;DHT22;14307;51.718;8.938;2023-12-29T08:14:21;9.60;99.90
26691;DHT22;14307;51.718;8.938;2023-12-29T08:16:48;9.60;99.90
26691;DHT22;14307;51.718;8.938;2023-12-29T08:19:15;9.70;99.90
26691;DHT22;14307;51.718;8.938;2023-12-29T08:21:43;9.70;99.90
26691;DHT22;14307;51.718;8.938;2023-12-29T08:24:10;9.60;99.90
26691;DHT22;14307;51.718;8.938;2023-12-29T08:26:44;9.60;99.90
26691;DHT22;14307;51.718;8.938;2023-12-29T08:29:12;9.50;99.90
26691;DHT22;14307;51.718;8.938;2023-12-29T08:31:39;9.50;99.90
26691;DHT22;14307;51.718;8.938;2023-12-29T08:34:06;9.30;99.90
26691;DHT22;14307;51.718;8.938;2023-12-29T08:36:33;9.30;99.90
26691;DHT22;14307;51.718;8.938;2023-12-29T08:39:00;9.30;99.90
26691;DHT22;14307;51.718;8.938;2023-12-29T08:41:26;9.20;99.90
26691;DHT22;14307;51.718;8.938;2023-12-29T08:43:53;9.20;99.90
26691;DHT22;14307;51.718;8.938;2023-12-29T08:46:20;9.10;99.90
26691;DHT22;14307;51.718;8.938;2023-12-29T08:48:47;9.10;99.90
26691;DHT22;14307;51.718;8.938;2023-12-29T08:51:14;9.00;99.90
26691;DHT22;14307;51.718;8.938;2023-12-29T08:53:41;9.00;99.90
26691;DHT22;14307;51.718;8.938;2023-12-29T08:56:08;9.00;99.90
26691;DHT22;14307;51.718;8.938;2023-12-29T08:58:34;8.90;99.90
26691;DHT22;14307;51.718;8.938;2023-12-29T09:01:01;8.90;99.90
26691;DHT22;14307;51.718;8.938;2023-12-29T09:03:28;8.90;99.90
26691;DHT22;14307;51.718;8.938;2023-12-29T09:05:55;8.90;99.90
26691;DHT22;14307;51.718;8.938;2023-12-29T09:08:24;8.80;99.90
26691;DHT22;14307;51.718;8.938;2023-12-29T09:10:50;8.80;99.90
26691;DHT22;14307;51.718;8.938;2023-12-29T09:13:17;8.70;99.90
26691;DHT22;14307;51.718;8.938;2023-12-29T09:15:49;8.70;99.90
26691;DHT22;14307;51.718;8.938;2023-12-29T09:18:15;8.70;99.90
26691;DHT22;14307;51.718;8.938;2023-12-29T09:20:42;8.70;99.90
26691;DHT22;14307;51.718;8.938;2023-12-29T09:23:09;8.70;99.90
26691;DHT22;14307;51.718;8.938;2023-12-29T09:25:36;8.70;99.90
26691;DHT22;14307;51.718;8.938;2023-12-29T09:28:04;8.70;99.90
26691;DHT22;14307;51.718;8.938;2023-12-29T09:30:31;8.70;99.90
26691;DHT22;14307;51.718;8.938;2023-12-29T09:32:58;8.70;99.90
26691;DHT22;14307;51.718;8.938;2023-12-29T09:35:24;8.80;99.90
26691;DHT22;14307;51.718;8.938;2023-12-29T09:37:51;8.80;99.90
26691;DHT22;14307;51.718;8.938;2023-12-29T09:40:18;8.80;99.90
26691;DHT22;14307;51.718;8.938;2023-12-29T09:42:46;8.90;99.90
26691;DHT22;14307;51.718;8.938;2023-12-29T09:45:13;8.90;99.90
26691;DHT22;14307;51.718;8.938;2023-12-29T09:47:43;9.00;99.90
26691;DHT22;14307;51.718;8.938;2023-12-29T09:50:12;9.00;99.90
26691;DHT22;14307;51.718;8.938;2023-12-29T09:52:40;9.00;99.90
26691;DHT22;14307;51.718;8.938;2023-12-29T09:55:09;9.00;99.90
26691;DHT22;14307;51.718;8.938;2023-12-29T09:57:40;9.00;99.90
26691;DHT22;14307;51.718;8.938;2023-12-29T10:00:11;9.00;99.90
26691;DHT22;14307;51.718;8.938;2023-12-29T10:02:38;9.00;99.90
26691;DHT22;14307;51.718;8.938;2023-12-29T10:05:05;9.00;99.90
26691;DHT22;14307;51.718;8.938;2023-12-29T10:07:36;9.00;99.90
26691;DHT22;14307;51.718;8.938;2023-12-29T10:10:07;9.10;99.90
26691;DHT22;14307;51.718;8.938;2023-12-29T10:12:35;9.10;99.90
26691;DHT22;14307;51.718;8.938;2023-12-29T10:18:00;9.10;99.90
26691;DHT22;14307;51.718;8.938;2023-12-29T10:20:33;9.10;99.90
26691;DHT22;14307;51.718;8.938;2023-12-29T10:23:09;9.10;99.90
26691;DHT22;14307;51.718;8.938;2023-12-29T10:25:39;9.10;99.90
26691;DHT22;14307;51.718;8.938;2023-12-29T10:28:07;9.10;99.90
26691;DHT22;14307;51.718;8.938;2023-12-29T10:30:36;9.00;99.90
26691;DHT22;14307;51.718;8.938;2023-12-29T10:33:07;9.00;99.90
26691;DHT22;14307;51.718;8.938;2023-12-29T10:35:36;9.10;99.90
26691;DHT22;14307;51.718;8.938;2023-12-29T10:38:11;9.10;99.90
26691;DHT22;14307;51.718;8.938;2023-12-29T10:40:39;9.20;99.90
26691;DHT22;14307;51.718;8.938;2023-12-29T10:43:06;9.20;99.90
26691;DHT22;14307;51.718;8.938;2023-12-29T10:45:36;9.20;99.90
26691;DHT22;14307;51.718;8.938;2023-12-29T10:48:04;9.20;99.90
26691;DHT22;14307;51.718;8.938;2023-12-29T10:50:45;9.20;99.90
26691;DHT22;14307;51.718;8.938;2023-12-29T10:53:16;9.20;99.90
26691;DHT22;14307;51.718;8.938;2023-12-29T10:55:44;9.20;99.90
26691;DHT22;14307;51.718;8.938;2023-12-29T10:58:11;9.30;99.90
26691;DHT22;14307;51.718;8.938;2023-12-29T11:00:38;9.40;99.90
26691;DHT22;14307;51.718;8.938;2023-12-29T11:03:05;9.40;99.90
26691;DHT22;14307;51.718;8.938;2023-12-29T11:05:33;9.40;99.90
26691;DHT22;14307;51.718;8.938;2023-12-29T11:08:00;9.40;99.90
26691;DHT22;14307;51.718;8.938;2023-12-29T11:10:28;9.50;99.90
26691;DHT22;14307;51.718;8.938;2023-12-29T11:12:56;9.50;99.90
26691;DHT22;14307;51.718;8.938;2023-12-29T11:15:24;9.50;99.90
26691;DHT22;14307;51.718;8.938;2023-12-29T11:17:53;9.50;99.90
26691;DHT22;14307;51.718;8.938;2023-12-29T11:20:23;9.40;99.90
26691;DHT22;14307;51.718;8.938;2023-12-29T11:22:52;9.40;99.90
26691;DHT22;14307;51.718;8.938;2023-12-29T11:25:20;9.40;99.90
26691;DHT22;14307;51.718;8.938;2023-12-29T11:27:48;9.50;99.90
26691;DHT22;14307;51.718;8.938;2023-12-29T11:30:15;9.50;99.90
26691;DHT22;14307;51.718;8.938;2023-12-29T11:32:53;9.50;99.90
26691;DHT22;14307;51.718;8.938;2023-12-29T11:38:43;9.40;99.90
26691;DHT22;14307;51.718;8.938;2023-12-29T11:41:25;9.40;99.90
26691;DHT22;14307;51.718;8.938;2023-12-29T11:43:58;9.40;99.90
26691;DHT22;14307;51.718;8.938;2023-12-29T11:46:39;9.40;99.90
26691;DHT22;14307;51.718;8.938;2023-12-29T11:49:10;9.50;99.90
26691;DHT22;14307;51.718;8.938;2023-12-29T11:51:45;9.50;99.90
26691;DHT22;14307;51.718;8.938;2023-12-29T11:54:24;9.50;99.90
26691;DHT22;14307;51.718;8.938;2023-12-29T11:56:53;9.50;99.90
26691;DHT22;14307;51.718;8.938;2023-12-29T11:59:24;9.50;99.90
26691;DHT22;14307;51.718;8.938;2023-12-29T12:01:56;9.50;99.90
26691;DHT22;14307;51.718;8.938;2023-12-29T12:04:43;9.50;99.90
26691;DHT22;14307;51.718;8.938;2023-12-29T12:12:46;9.70;99.90
26691;DHT22;14307;51.718;8.938;2023-12-29T12:17:54;9.80;99.90
26691;DHT22;14307;51.718;8.938;2023-12-29T12:20:22;9.90;99.90
26691;DHT22;14307;51.718;8.938;2023-12-29T12:25:27;9.90;99.90
26691;DHT22;14307;51.718;8.938;2023-12-29T12:27:58;10.00;99.90
26691;DHT22;14307;51.718;8.938;2023-12-29T12:30:24;10.00;99.90
26691;DHT22;14307;51.718;8.938;2023-12-29T12:32:58;10.00;99.90
26691;DHT22;14307;51.718;8.938;2023-12-29T12:35:26;10.10;99.90
26691;DHT22;14307;51.718;8.938;2023-12-29T12:38:13;10.00;99.90
26691;DHT22;14307;51.718;8.938;2023-12-29T12:40:40;9.80;99.90
26691;DHT22;14307;51.718;8.938;2023-12-29T12:43:07;9.50;99.90
26691;DHT22;14307;51.718;8.938;2023-12-29T12:45:42;9.30;99.90
26691;DHT22;14307;51.718;8.938;2023-12-29T12:48:33;9.20;99.90
26691;DHT22;14307;51.718;8.938;2023-12-29T12:51:02;9.20;99.90
26691;DHT22;14307;51.718;8.938;2023-12-29T12:53:30;9.20;99.90
26691;DHT22;14307;51.718;8.938;2023-12-29T12:55:57;9.30;99.90
26691;DHT22;14307;51.718;8.938;2023-12-29T12:58:24;9.30;99.90
26691;DHT22;14307;51.718;8.938;2023-12-29T13:00:53;9.30;99.90
26691;DHT22;14307;51.718;8.938;2023-12-29T13:03:23;9.40;99.90
26691;DHT22;14307;51.718;8.938;2023-12-29T13:05:51;9.50;99.90
26691;DHT22;14307;51.718;8.938;2023-12-29T13:08:18;9.50;99.90
26691;DHT22;14307;51.718;8.938;2023-12-29T13:11:00;9.60;99.90
26691;DHT22;14307;51.718;8.938;2023-12-29T13:13:40;9.60;99.90
26691;DHT22;14307;51.718;8.938;2023-12-29T13:16:07;9.70;99.90
26691;DHT22;14307;51.718;8.938;2023-12-29T13:18:35;9.70;99.90
26691;DHT22;14307;51.718;8.938;2023-12-29T13:21:02;9.80;99.90
26691;DHT22;14307;51.718;8.938;2023-12-29T13:23:30;9.80;99.90
26691;DHT22;14307;51.718;8.938;2023-12-29T13:26:01;9.90;99.90
26691;DHT22;14307;51.718;8.938;2023-12-29T13:28:29;9.90;99.90
26691;DHT22;14307;51.718;8.938;2023-12-29T13:30:56;9.90;99.90
26691;DHT22;14307;51.718;8.938;2023-12-29T13:33:30;9.90;99.90
26691;DHT22;14307;51.718;8.938;2023-12-29T13:36:10;9.90;99.90
26691;DHT22;14307;51.718;8.938;2023-12-29T13:38:44;10.00;99.90
26691;DHT22;14307;51.718;8.938;2023-12-29T13:41:15;9.90;99.90
26691;DHT22;14307;51.718;8.938;2023-12-29T13:43:44;10.00;99.90
26691;DHT22;14307;51.718;8.938;2023-12-29T13:46:13;10.00;99.90
26691;DHT22;14307;51.718;8.938;2023-12-29T13:48:41;9.90;99.90
26691;DHT22;14307;51.718;8.938;2023-12-29T13:51:09;10.00;99.90
26691;DHT22;14307;51.718;8.938;2023-12-29T13:53:36;9.90;99.90
26691;DHT22;14307;51.718;8.938;2023-12-29T13:56:07;9.90;99.90
26691;DHT22;14307;51.718;8.938;2023-12-29T13:58:34;9.90;99.90
26691;DHT22;14307;51.718;8.938;2023-12-29T14:01:04;9.90;99.90
26691;DHT22;14307;51.718;8.938;2023-12-29T14:03:50;9.80;99.90
26691;DHT22;14307;51.718;8.938;2023-12-29T14:06:26;9.80;99.90
26691;DHT22;14307;51.718;8.938;2023-12-29T14:08:54;9.80;99.90
26691;DHT22;14307;51.718;8.938;2023-12-29T14:11:21;9.70;99.90
26691;DHT22;14307;51.718;8.938;2023-12-29T14:13:49;9.70;99.90
26691;DHT22;14307;51.718;8.938;2023-12-29T14:16:16;9.60;99.90
26691;DHT22;14307;51.718;8.938;2023-12-29T14:18:54;9.40;99.90
26691;DHT22;14307;51.718;8.938;2023-12-29T14:21:29;9.30;99.90
26691;DHT22;14307;51.718;8.938;2023-12-29T14:26:33;9.00;99.90
26691;DHT22;14307;51.718;8.938;2023-12-29T14:29:08;8.90;99.90
26691;DHT22;14307;51.718;8.938;2023-12-29T14:31:42;8.80;99.90
26691;DHT22;14307;51.718;8.938;2023-12-29T14:34:10;8.80;99.90
26691;DHT22;14307;51.718;8.938;2023-12-29T14:36:39;8.70;99.90
26691;DHT22;14307;51.718;8.938;2023-12-29T14:39:06;8.60;99.90
26691;DHT22;14307;51.718;8.938;2023-12-29T14:41:33;8.60;99.90
26691;DHT22;14307;51.718;8.938;2023-12-29T14:44:00;8.60;99.90
26691;DHT22;14307;51.718;8.938;2023-12-29T14:46:27;8.50;99.90
26691;DHT22;14307;51.718;8.938;2023-12-29T14:48:54;8.50;99.90
26691;DHT22;14307;51.718;8.938;2023-12-29T14:51:23;8.50;99.90
26691;DHT22;14307;51.718;8.938;2023-12-29T14:53:50;8.40;99.90
26691;DHT22;14307;51.718;8.938;2023-12-29T14:56:17;8.30;99.90
26691;DHT22;14307;51.718;8.938;2023-12-29T14:58:45;8.20;99.90
26691;DHT22;14307;51.718;8.938;2023-12-29T15:01:12;8.10;99.90
26691;DHT22;14307;51.718;8.938;2023-12-29T15:03:39;8.10;99.90
26691;DHT22;14307;51.718;8.938;2023-12-29T15:06:06;8.10;99.90
26691;DHT22;14307;51.718;8.938;2023-12-29T15:08:34;8.00;99.90
26691;DHT22;14307;51.718;8.938;2023-12-29T15:11:05;7.90;99.90
26691;DHT22;14307;51.718;8.938;2023-12-29T15:13:32;7.90;99.90
26691;DHT22;14307;51.718;8.938;2023-12-29T15:16:00;7.90;99.90
26691;DHT22;14307;51.718;8.938;2023-12-29T15:18:28;7.80;99.90
26691;DHT22;14307;51.718;8.938;2023-12-29T15:20:58;7.80;99.90
26691;DHT22;14307;51.718;8.938;2023-12-29T15:23:25;7.80;99.90
26691;DHT22;14307;51.718;8.938;2023-12-29T15:25:51;7.80;99.90
26691;DHT22;14307;51.718;8.938;2023-12-29T15:28:19;7.80;99.90
26691;DHT22;14307;51.718;8.938;2023-12-29T15:30:45;7.80;99.90
26691;DHT22;14307;51.718;8.938;2023-12-29T15:33:13;7.80;99.90
26691;DHT22;14307;51.718;8.938;2023-12-29T15:35:41;7.70;99.90
26691;DHT22;14307;51.718;8.938;2023-12-29T15:38:08;7.70;99.90
26691;DHT22;14307;51.718;8.938;2023-12-29T15:40:35;7.70;99.90
26691;DHT22;14307;51.718;8.938;2023-12-29T15:43:02;7.70;99.90
26691;DHT22;14307;51.718;8.938;2023-12-29T15:45:34;7.60;99.90
26691;DHT22;14307;51.718;8.938;2023-12-29T15:48:02;7.60;99.90
26691;DHT22;14307;51.718;8.938;2023-12-29T15:50:30;7.50;99.90
26691;DHT22;14307;51.718;8.938;2023-12-29T15:52:57;7.50;99.90
26691;DHT22;14307;51.718;8.938;2023-12-29T15:55:24;7.50;99.90
26691;DHT22;14307;51.718;8.938;2023-12-29T15:57:51;7.50;99.90
26691;DHT22;14307;51.718;8.938;2023-12-29T16:00:18;7.50;99.90
26691;DHT22;14307;51.718;8.938;2023-12-29T16:02:45;7.60;99.90
26691;DHT22;14307;51.718;8.938;2023-12-29T16:05:12;7.50;99.90
26691;DHT22;14307;51.718;8.938;2023-12-29T16:07:39;7.50;99.90
26691;DHT22;14307;51.718;8.938;2023-12-29T16:10:06;7.60;99.90
26691;DHT22;14307;51.718;8.938;2023-12-29T16:12:34;7.60;99.90